Terminal Aerodrome Forecast
Issued by NWS

Home | Current Version | Previous Version | Text Only | Print | Product List | Glossary On
Versions: 1 2 3 4 5 6 7 8 9 10 11 12 13 14
000
FTUS44 KTSA 220500
TAFFYV
TAF
KFYV 220532Z 2206/2306 18012G20KT P6SM OVC025
     FM221000 18010KT P6SM OVC015
     FM221600 18012KT 6SM -SHRA BR OVC008
     FM222300 18009KT 6SM -SHRA BR OVC012=

USA.gov is the U.S. government's official web portal to all federal, state and local government web resources and services.